sensor_id;sensor_type;location;lat;lon;timestamp;pressure;altitude;pressure_sealevel;temperature
19568;BMP280;9930;49.240;8.548;2022-07-06T00:01:03;101072.47;;;25.26
19568;BMP280;9930;49.240;8.548;2022-07-06T00:03:31;101079.47;;;25.22
19568;BMP280;9930;49.240;8.548;2022-07-06T00:05:59;101084.69;;;25.22
19568;BMP280;9930;49.240;8.548;2022-07-06T00:08:28;101082.19;;;25.13
19568;BMP280;9930;49.240;8.548;2022-07-06T00:10:59;101082.22;;;25.10
19568;BMP280;9930;49.240;8.548;2022-07-06T00:13:28;101096.13;;;25.10
19568;BMP280;9930;49.240;8.548;2022-07-06T00:15:57;101090.94;;;25.07
19568;BMP280;9930;49.240;8.548;2022-07-06T00:18:23;101090.13;;;25.04
19568;BMP280;9930;49.240;8.548;2022-07-06T00:20:49;101086.69;;;24.96
19568;BMP280;9930;49.240;8.548;2022-07-06T00:23:14;101093.69;;;24.97
19568;BMP280;9930;49.240;8.548;2022-07-06T00:25:45;101091.06;;;24.94
19568;BMP280;9930;49.240;8.548;2022-07-06T00:28:13;101093.72;;;24.89
19568;BMP280;9930;49.240;8.548;2022-07-06T00:30:41;101092.03;;;24.85
19568;BMP280;9930;49.240;8.548;2022-07-06T00:33:07;101100.75;;;24.82
19568;BMP280;9930;49.240;8.548;2022-07-06T00:35:33;101100.78;;;24.79
19568;BMP280;9930;49.240;8.548;2022-07-06T00:37:59;101103.44;;;24.76
19568;BMP280;9930;49.240;8.548;2022-07-06T00:40:31;101106.06;;;24.73
19568;BMP280;9930;49.240;8.548;2022-07-06T00:43:00;101106.09;;;24.70
19568;BMP280;9930;49.240;8.548;2022-07-06T00:45:29;101099.22;;;24.62
19568;BMP280;9930;49.240;8.548;2022-07-06T00:47:59;101101.88;;;24.56
19568;BMP280;9930;49.240;8.548;2022-07-06T00:50:29;101110.53;;;24.59
19568;BMP280;9930;49.240;8.548;2022-07-06T00:53:04;101104.53;;;24.52
19568;BMP280;9930;49.240;8.548;2022-07-06T00:55:39;101104.50;;;24.54
19568;BMP280;9930;49.240;8.548;2022-07-06T00:58:07;101100.25;;;24.44
19568;BMP280;9930;49.240;8.548;2022-07-06T01:00:34;101116.75;;;24.46
19568;BMP280;9930;49.240;8.548;2022-07-06T01:03:02;101128.06;;;24.42
19568;BMP280;9930;49.240;8.548;2022-07-06T01:05:31;101108.19;;;24.30
19568;BMP280;9930;49.240;8.548;2022-07-06T01:07:59;101106.44;;;24.29
19568;BMP280;9930;49.240;8.548;2022-07-06T01:10:29;101117.75;;;24.30
19568;BMP280;9930;49.240;8.548;2022-07-06T01:12:58;101113.41;;;24.22
19568;BMP280;9930;49.240;8.548;2022-07-06T01:15:28;101109.06;;;24.23
19568;BMP280;9930;49.240;8.548;2022-07-06T01:17:58;101103.00;;;24.21
19568;BMP280;9930;49.240;8.548;2022-07-06T01:20:29;101106.50;;;24.17
19568;BMP280;9930;49.240;8.548;2022-07-06T01:22:59;101102.19;;;24.11
19568;BMP280;9930;49.240;8.548;2022-07-06T01:25:28;101104.78;;;24.13
19568;BMP280;9930;49.240;8.548;2022-07-06T01:27:58;101098.78;;;24.05
19568;BMP280;9930;49.240;8.548;2022-07-06T01:30:28;101105.69;;;24.09
19568;BMP280;9930;49.240;8.548;2022-07-06T01:32:58;101094.47;;;24.01
19568;BMP280;9930;49.240;8.548;2022-07-06T01:35:31;101109.25;;;23.97
19568;BMP280;9930;49.240;8.548;2022-07-06T01:37:59;101093.69;;;23.86
19568;BMP280;9930;49.240;8.548;2022-07-06T01:40:28;101099.75;;;23.88
19568;BMP280;9930;49.240;8.548;2022-07-06T01:42:58;101104.09;;;23.86
19568;BMP280;9930;49.240;8.548;2022-07-06T01:45:31;101106.72;;;23.85
19568;BMP280;9930;49.240;8.548;2022-07-06T01:47:59;101106.75;;;23.80
19568;BMP280;9930;49.240;8.548;2022-07-06T01:50:28;101102.41;;;23.78
19568;BMP280;9930;49.240;8.548;2022-07-06T01:53:01;101100.69;;;23.75
19568;BMP280;9930;49.240;8.548;2022-07-06T01:55:29;101091.19;;;23.67
19568;BMP280;9930;49.240;8.548;2022-07-06T01:57:59;101091.19;;;23.68
19568;BMP280;9930;49.240;8.548;2022-07-06T02:00:28;101106.81;;;23.70
19568;BMP280;9930;49.240;8.548;2022-07-06T02:02:59;101107.66;;;23.72
19568;BMP280;9930;49.240;8.548;2022-07-06T02:05:28;101115.47;;;23.70
19568;BMP280;9930;49.240;8.548;2022-07-06T02:07:54;101110.31;;;23.64
19568;BMP280;9930;49.240;8.548;2022-07-06T02:10:23;101112.06;;;23.61
19568;BMP280;9930;49.240;8.548;2022-07-06T02:12:51;101102.50;;;23.53
19568;BMP280;9930;49.240;8.548;2022-07-06T02:15:17;101115.53;;;23.60
19568;BMP280;9930;49.240;8.548;2022-07-06T02:17:42;101119.00;;;23.58
19568;BMP280;9930;49.240;8.548;2022-07-06T02:20:11;101113.81;;;23.57
19568;BMP280;9930;49.240;8.548;2022-07-06T02:22:37;101109.47;;;23.54
19568;BMP280;9930;49.240;8.548;2022-07-06T02:25:03;101104.28;;;23.45
19568;BMP280;9930;49.240;8.548;2022-07-06T02:27:29;101118.16;;;23.49
19568;BMP280;9930;49.240;8.548;2022-07-06T02:29:59;101103.44;;;23.42
19568;BMP280;9930;49.240;8.548;2022-07-06T02:32:28;101111.22;;;23.43
19568;BMP280;9930;49.240;8.548;2022-07-06T02:35:02;101107.78;;;23.40
19568;BMP280;9930;49.240;8.548;2022-07-06T02:37:29;101110.38;;;23.40
19568;BMP280;9930;49.240;8.548;2022-07-06T02:40:01;101104.34;;;23.32
19568;BMP280;9930;49.240;8.548;2022-07-06T02:42:29;101112.13;;;23.36
19568;BMP280;9930;49.240;8.548;2022-07-06T02:45:01;101115.59;;;23.34
19568;BMP280;9930;49.240;8.548;2022-07-06T02:47:29;101103.50;;;23.23
19568;BMP280;9930;49.240;8.548;2022-07-06T02:49:58;101119.09;;;23.28
19568;BMP280;9930;49.240;8.548;2022-07-06T02:52:28;101127.78;;;23.27
19568;BMP280;9930;49.240;8.548;2022-07-06T02:54:59;101122.59;;;23.18
19568;BMP280;9930;49.240;8.548;2022-07-06T02:57:29;101141.69;;;23.21
19568;BMP280;9930;49.240;8.548;2022-07-06T03:00:01;101145.16;;;23.19
19568;BMP280;9930;49.240;8.548;2022-07-06T03:02:29;101139.97;;;23.14
19568;BMP280;9930;49.240;8.548;2022-07-06T03:04:59;101142.56;;;23.13
19568;BMP280;9930;49.240;8.548;2022-07-06T03:07:29;101135.66;;;23.06
19568;BMP280;9930;49.240;8.548;2022-07-06T03:09:59;101139.09;;;23.08
19568;BMP280;9930;49.240;8.548;2022-07-06T03:12:29;101138.25;;;23.03
19568;BMP280;9930;49.240;8.548;2022-07-06T03:14:58;101149.53;;;23.02
19568;BMP280;9930;49.240;8.548;2022-07-06T03:17:29;101151.28;;;22.98
19568;BMP280;9930;49.240;8.548;2022-07-06T03:19:58;101146.94;;;22.91
19568;BMP280;9930;49.240;8.548;2022-07-06T03:22:26;101152.16;;;22.94
19568;BMP280;9930;49.240;8.548;2022-07-06T03:24:59;101153.88;;;22.86
19568;BMP280;9930;49.240;8.548;2022-07-06T03:27:29;101172.97;;;22.91
19568;BMP280;9930;49.240;8.548;2022-07-06T03:29:59;101170.38;;;22.85
19568;BMP280;9930;49.240;8.548;2022-07-06T03:32:31;101160.81;;;22.81
19568;BMP280;9930;49.240;8.548;2022-07-06T03:35:01;101176.44;;;22.85
19568;BMP280;9930;49.240;8.548;2022-07-06T03:37:29;101164.25;;;22.78
19568;BMP280;9930;49.240;8.548;2022-07-06T03:40:01;101164.28;;;22.81
19568;BMP280;9930;49.240;8.548;2022-07-06T03:42:29;101155.59;;;22.76
19568;BMP280;9930;49.240;8.548;2022-07-06T03:44:59;101166.88;;;22.78
19568;BMP280;9930;49.240;8.548;2022-07-06T03:47:31;101158.19;;;22.70
19568;BMP280;9930;49.240;8.548;2022-07-06T03:49:59;101166.00;;;22.76
19568;BMP280;9930;49.240;8.548;2022-07-06T03:52:33;101167.72;;;22.76
19568;BMP280;9930;49.240;8.548;2022-07-06T03:54:59;101169.47;;;22.75
19568;BMP280;9930;49.240;8.548;2022-07-06T03:57:31;101174.66;;;22.78
19568;BMP280;9930;49.240;8.548;2022-07-06T03:59:59;101159.94;;;22.73
19568;BMP280;9930;49.240;8.548;2022-07-06T04:02:28;101174.69;;;22.80
19568;BMP280;9930;49.240;8.548;2022-07-06T04:04:57;101164.25;;;22.75
19568;BMP280;9930;49.240;8.548;2022-07-06T04:07:23;101162.53;;;22.76
19568;BMP280;9930;49.240;8.548;2022-07-06T04:09:51;101172.09;;;22.83
19568;BMP280;9930;49.240;8.548;2022-07-06T04:12:19;101172.09;;;22.83
19568;BMP280;9930;49.240;8.548;2022-07-06T04:14:45;101162.53;;;22.74
19568;BMP280;9930;49.240;8.548;2022-07-06T04:17:11;101177.31;;;22.81
19568;BMP280;9930;49.240;8.548;2022-07-06T04:19:55;101166.00;;;22.73
19568;BMP280;9930;49.240;8.548;2022-07-06T04:22:21;101168.59;;;22.72
19568;BMP280;9930;49.240;8.548;2022-07-06T04:24:47;101176.41;;;22.78
19568;BMP280;9930;49.240;8.548;2022-07-06T04:27:12;101183.38;;;22.80
19568;BMP280;9930;49.240;8.548;2022-07-06T04:29:38;101186.84;;;22.79
19568;BMP280;9930;49.240;8.548;2022-07-06T04:32:07;101178.13;;;22.76
19568;BMP280;9930;49.240;8.548;2022-07-06T04:34:33;101168.59;;;22.69
19568;BMP280;9930;49.240;8.548;2022-07-06T04:36:59;101185.06;;;22.72
19568;BMP280;9930;49.240;8.548;2022-07-06T04:39:29;101184.22;;;22.76
19568;BMP280;9930;49.240;8.548;2022-07-06T04:41:59;101188.56;;;22.82
19568;BMP280;9930;49.240;8.548;2022-07-06T04:44:29;101195.50;;;22.92
19568;BMP280;9930;49.240;8.548;2022-07-06T04:46:58;101192.91;;;22.98
19568;BMP280;9930;49.240;8.548;2022-07-06T04:49:27;101200.69;;;23.07
19568;BMP280;9930;49.240;8.548;2022-07-06T04:51:59;101206.75;;;23.14
19568;BMP280;9930;49.240;8.548;2022-07-06T04:54:28;101198.94;;;23.20
19568;BMP280;9930;49.240;8.548;2022-07-06T04:56:58;101196.34;;;23.23
19568;BMP280;9930;49.240;8.548;2022-07-06T05:01:59;101198.06;;;23.29
19568;BMP280;9930;49.240;8.548;2022-07-06T05:04:29;101211.06;;;23.35
19568;BMP280;9930;49.240;8.548;2022-07-06T05:06:59;101209.31;;;23.38
19568;BMP280;9930;49.240;8.548;2022-07-06T05:09:29;101209.31;;;23.40
19568;BMP280;9930;49.240;8.548;2022-07-06T05:11:56;101215.38;;;23.40
19568;BMP280;9930;49.240;8.548;2022-07-06T05:14:22;101219.72;;;23.43
19568;BMP280;9930;49.240;8.548;2022-07-06T05:16:50;101208.44;;;23.39
19568;BMP280;9930;49.240;8.548;2022-07-06T05:19:16;101227.53;;;23.49
19568;BMP280;9930;49.240;8.548;2022-07-06T05:21:41;101210.19;;;23.40
19568;BMP280;9930;49.240;8.548;2022-07-06T05:24:07;101214.50;;;23.47
19568;BMP280;9930;49.240;8.548;2022-07-06T05:26:33;101219.72;;;23.55
19568;BMP280;9930;49.240;8.548;2022-07-06T05:28:59;101213.63;;;23.53
19568;BMP280;9930;49.240;8.548;2022-07-06T05:31:29;101226.66;;;23.64
19568;BMP280;9930;49.240;8.548;2022-07-06T05:33:59;101211.91;;;23.56
19568;BMP280;9930;49.240;8.548;2022-07-06T05:36:27;101226.66;;;23.61
19568;BMP280;9930;49.240;8.548;2022-07-06T05:38:53;101224.06;;;23.57
19568;BMP280;9930;49.240;8.548;2022-07-06T05:41:21;101226.66;;;23.62
19568;BMP280;9930;49.240;8.548;2022-07-06T05:43:49;101230.06;;;23.79
19568;BMP280;9930;49.240;8.548;2022-07-06T05:46:19;101223.00;;;24.04
19568;BMP280;9930;49.240;8.548;2022-07-06T05:48:45;101217.69;;;24.22
19568;BMP280;9930;49.240;8.548;2022-07-06T05:51:29;101219.38;;;24.39
19568;BMP280;9930;49.240;8.548;2022-07-06T05:53:58;101226.06;;;24.78
19568;BMP280;9930;49.240;8.548;2022-07-06T05:56:26;101227.56;;;25.08
19568;BMP280;9930;49.240;8.548;2022-07-06T05:58:52;101232.47;;;25.40
19568;BMP280;9930;49.240;8.548;2022-07-06T06:01:18;101235.66;;;25.71
19568;BMP280;9930;49.240;8.548;2022-07-06T06:03:46;101227.53;;;25.92
19568;BMP280;9930;49.240;8.548;2022-07-06T06:06:12;101236.09;;;26.02
19568;BMP280;9930;49.240;8.548;2022-07-06T06:08:37;101232.63;;;26.01
19568;BMP280;9930;49.240;8.548;2022-07-06T06:11:03;101228.19;;;26.08
19568;BMP280;9930;49.240;8.548;2022-07-06T06:13:29;101232.47;;;26.12
19568;BMP280;9930;49.240;8.548;2022-07-06T06:15:57;101232.44;;;26.15
19568;BMP280;9930;49.240;8.548;2022-07-06T06:18:23;101228.94;;;26.16
19568;BMP280;9930;49.240;8.548;2022-07-06T06:20:49;101235.13;;;26.10
19568;BMP280;9930;49.240;8.548;2022-07-06T06:23:14;101221.41;;;25.96
19568;BMP280;9930;49.240;8.548;2022-07-06T06:25:40;101233.53;;;26.00
19568;BMP280;9930;49.240;8.548;2022-07-06T06:28:10;101246.47;;;26.08
19568;BMP280;9930;49.240;8.548;2022-07-06T06:30:39;101243.81;;;26.11
19568;BMP280;9930;49.240;8.548;2022-07-06T06:33:19;101252.50;;;26.13
19568;BMP280;9930;49.240;8.548;2022-07-06T06:35:50;101248.16;;;26.13
19568;BMP280;9930;49.240;8.548;2022-07-06T06:38:19;101255.06;;;26.19
19568;BMP280;9930;49.240;8.548;2022-07-06T06:40:50;101252.34;;;26.27
19568;BMP280;9930;49.240;8.548;2022-07-06T06:43:16;101250.53;;;26.32
19568;BMP280;9930;49.240;8.548;2022-07-06T06:45:44;101251.31;;;26.40
19568;BMP280;9930;49.240;8.548;2022-07-06T06:48:12;101256.44;;;26.46
19568;BMP280;9930;49.240;8.548;2022-07-06T06:50:38;101248.53;;;26.51
19568;BMP280;9930;49.240;8.548;2022-07-06T06:53:03;101259.75;;;26.59
19568;BMP280;9930;49.240;8.548;2022-07-06T06:55:31;101249.97;;;26.71
19568;BMP280;9930;49.240;8.548;2022-07-06T06:57:57;101241.03;;;26.85
19568;BMP280;9930;49.240;8.548;2022-07-06T07:00:25;101260.78;;;27.05
19568;BMP280;9930;49.240;8.548;2022-07-06T07:02:54;101251.78;;;27.20
19568;BMP280;9930;49.240;8.548;2022-07-06T07:05:20;101261.00;;;27.42
19568;BMP280;9930;49.240;8.548;2022-07-06T07:07:48;101265.03;;;27.62
19568;BMP280;9930;49.240;8.548;2022-07-06T07:10:14;101260.34;;;27.78
19568;BMP280;9930;49.240;8.548;2022-07-06T07:12:47;101262.72;;;27.90
19568;BMP280;9930;49.240;8.548;2022-07-06T07:15:14;101255.84;;;27.84
19568;BMP280;9930;49.240;8.548;2022-07-06T07:17:42;101262.97;;;27.78
19568;BMP280;9930;49.240;8.548;2022-07-06T07:20:09;101264.97;;;27.65
19568;BMP280;9930;49.240;8.548;2022-07-06T07:22:35;101263.56;;;27.46
19568;BMP280;9930;49.240;8.548;2022-07-06T07:25:05;101272.41;;;27.40
19568;BMP280;9930;49.240;8.548;2022-07-06T07:27:31;101275.34;;;27.22
19568;BMP280;9930;49.240;8.548;2022-07-06T07:30:01;101266.03;;;27.04
19568;BMP280;9930;49.240;8.548;2022-07-06T07:32:28;101254.97;;;26.85
19568;BMP280;9930;49.240;8.548;2022-07-06T07:34:54;101259.31;;;26.86
19568;BMP280;9930;49.240;8.548;2022-07-06T07:37:21;101250.50;;;26.92
19568;BMP280;9930;49.240;8.548;2022-07-06T07:39:46;101258.31;;;26.95
19568;BMP280;9930;49.240;8.548;2022-07-06T07:42:12;101248.81;;;26.88
19568;BMP280;9930;49.240;8.548;2022-07-06T07:44:38;101253.88;;;27.01
19568;BMP280;9930;49.240;8.548;2022-07-06T07:47:05;101257.97;;;27.16
19568;BMP280;9930;49.240;8.548;2022-07-06T07:49:33;101249.97;;;27.24
19568;BMP280;9930;49.240;8.548;2022-07-06T07:52:01;101249.91;;;27.28
19568;BMP280;9930;49.240;8.548;2022-07-06T07:54:27;101249.84;;;27.31
19568;BMP280;9930;49.240;8.548;2022-07-06T07:56:52;101253.22;;;27.38
19568;BMP280;9930;49.240;8.548;2022-07-06T07:59:19;101254.91;;;27.40
19568;BMP280;9930;49.240;8.548;2022-07-06T08:01:45;101247.06;;;27.40
19568;BMP280;9930;49.240;8.548;2022-07-06T08:04:11;101250.56;;;27.39
19568;BMP280;9930;49.240;8.548;2022-07-06T08:06:36;101247.22;;;27.31
19568;BMP280;9930;49.240;8.548;2022-07-06T08:09:05;101254.31;;;27.26
19568;BMP280;9930;49.240;8.548;2022-07-06T08:11:35;101255.09;;;27.31
19568;BMP280;9930;49.240;8.548;2022-07-06T08:14:06;101261.16;;;27.33
19568;BMP280;9930;49.240;8.548;2022-07-06T08:16:31;101256.69;;;27.38
19568;BMP280;9930;49.240;8.548;2022-07-06T08:18:58;101253.13;;;27.42
19568;BMP280;9930;49.240;8.548;2022-07-06T08:21:26;101264.44;;;27.45
19568;BMP280;9930;49.240;8.548;2022-07-06T08:23:56;101242.66;;;27.42
19568;BMP280;9930;49.240;8.548;2022-07-06T08:26:28;101249.41;;;27.54
19568;BMP280;9930;49.240;8.548;2022-07-06T08:28:54;101259.88;;;27.56
19568;BMP280;9930;49.240;8.548;2022-07-06T08:31:22;101259.19;;;27.46
19568;BMP280;9930;49.240;8.548;2022-07-06T08:33:50;101254.16;;;27.34
19568;BMP280;9930;49.240;8.548;2022-07-06T08:36:19;101259.44;;;27.32
19568;BMP280;9930;49.240;8.548;2022-07-06T08:38:48;101259.41;;;27.34
19568;BMP280;9930;49.240;8.548;2022-07-06T08:41:18;101253.19;;;27.39
19568;BMP280;9930;49.240;8.548;2022-07-06T08:43:47;101261.78;;;27.48
19568;BMP280;9930;49.240;8.548;2022-07-06T08:46:13;101256.44;;;27.52
19568;BMP280;9930;49.240;8.548;2022-07-06T08:48:41;101269.56;;;27.51
19568;BMP280;9930;49.240;8.548;2022-07-06T08:51:07;101266.13;;;27.49
19568;BMP280;9930;49.240;8.548;2022-07-06T08:53:36;101267.84;;;27.50
19568;BMP280;9930;49.240;8.548;2022-07-06T08:56:02;101273.22;;;27.42
19568;BMP280;9930;49.240;8.548;2022-07-06T08:58:28;101262.09;;;27.31
19568;BMP280;9930;49.240;8.548;2022-07-06T09:00:57;101270.03;;;27.26
19568;BMP280;9930;49.240;8.548;2022-07-06T09:03:24;101251.19;;;27.04
19568;BMP280;9930;49.240;8.548;2022-07-06T09:05:51;101268.72;;;27.01
19568;BMP280;9930;49.240;8.548;2022-07-06T09:08:21;101265.25;;;26.99
19568;BMP280;9930;49.240;8.548;2022-07-06T09:10:47;101273.13;;;26.96
19568;BMP280;9930;49.240;8.548;2022-07-06T09:13:15;101267.06;;;26.94
19568;BMP280;9930;49.240;8.548;2022-07-06T09:15:41;101264.41;;;26.95
19568;BMP280;9930;49.240;8.548;2022-07-06T09:18:09;101273.00;;;27.05
19568;BMP280;9930;49.240;8.548;2022-07-06T09:20:36;101264.09;;;27.15
19568;BMP280;9930;49.240;8.548;2022-07-06T09:23:10;101269.13;;;27.27
19568;BMP280;9930;49.240;8.548;2022-07-06T09:25:41;101269.06;;;27.30
19568;BMP280;9930;49.240;8.548;2022-07-06T09:28:06;101264.75;;;27.28
19568;BMP280;9930;49.240;8.548;2022-07-06T09:30:34;101281.19;;;27.37
19568;BMP280;9930;49.240;8.548;2022-07-06T09:33:08;101266.41;;;27.33
19568;BMP280;9930;49.240;8.548;2022-07-06T09:35:38;101275.06;;;27.37
19568;BMP280;9930;49.240;8.548;2022-07-06T09:38:14;101263.75;;;27.35
19568;BMP280;9930;49.240;8.548;2022-07-06T09:40:45;101276.69;;;27.44
19568;BMP280;9930;49.240;8.548;2022-07-06T09:45:38;101264.84;;;27.23
19568;BMP280;9930;49.240;8.548;2022-07-06T09:48:14;101266.66;;;27.18
19568;BMP280;9930;49.240;8.548;2022-07-06T09:50:47;101271.84;;;27.21
19568;BMP280;9930;49.240;8.548;2022-07-06T09:53:14;101258.81;;;27.18
19568;BMP280;9930;49.240;8.548;2022-07-06T09:55:48;101256.97;;;27.23
19568;BMP280;9930;49.240;8.548;2022-07-06T09:58:20;101270.75;;;27.34
19568;BMP280;9930;49.240;8.548;2022-07-06T10:00:47;101269.81;;;27.37
19568;BMP280;9930;49.240;8.548;2022-07-06T10:03:17;101268.91;;;27.39
19568;BMP280;9930;49.240;8.548;2022-07-06T10:05:47;101273.19;;;27.45
19568;BMP280;9930;49.240;8.548;2022-07-06T10:08:17;101262.78;;;27.40
19568;BMP280;9930;49.240;8.548;2022-07-06T10:10:44;101280.06;;;27.51
19568;BMP280;9930;49.240;8.548;2022-07-06T10:13:12;101285.34;;;27.49
19568;BMP280;9930;49.240;8.548;2022-07-06T10:15:41;101267.88;;;27.48
19568;BMP280;9930;49.240;8.548;2022-07-06T10:18:10;101274.75;;;27.54
19568;BMP280;9930;49.240;8.548;2022-07-06T10:20:37;101258.16;;;27.55
19568;BMP280;9930;49.240;8.548;2022-07-06T10:23:08;101280.56;;;27.71
19568;BMP280;9930;49.240;8.548;2022-07-06T10:25:34;101276.13;;;27.74
19568;BMP280;9930;49.240;8.548;2022-07-06T10:28:01;101270.00;;;27.76
19568;BMP280;9930;49.240;8.548;2022-07-06T10:30:33;101269.81;;;27.85
19568;BMP280;9930;49.240;8.548;2022-07-06T10:33:00;101276.75;;;27.87
19568;BMP280;9930;49.240;8.548;2022-07-06T10:35:30;101267.91;;;27.93
19568;BMP280;9930;49.240;8.548;2022-07-06T10:38:12;101278.09;;;28.06
19568;BMP280;9930;49.240;8.548;2022-07-06T10:40:41;101253.69;;;28.03
19568;BMP280;9930;49.240;8.548;2022-07-06T10:43:33;101272.56;;;28.20
19568;BMP280;9930;49.240;8.548;2022-07-06T10:46:08;101272.50;;;28.25
19568;BMP280;9930;49.240;8.548;2022-07-06T10:48:36;101285.56;;;28.28
19568;BMP280;9930;49.240;8.548;2022-07-06T10:51:02;101259.44;;;28.20
19568;BMP280;9930;49.240;8.548;2022-07-06T10:53:40;101263.75;;;28.24
19568;BMP280;9930;49.240;8.548;2022-07-06T10:56:09;101267.91;;;28.34
19568;BMP280;9930;49.240;8.548;2022-07-06T10:58:49;101268.63;;;28.41
19568;BMP280;9930;49.240;8.548;2022-07-06T11:01:18;101256.44;;;28.38
19568;BMP280;9930;49.240;8.548;2022-07-06T11:04:05;101260.66;;;28.46
19568;BMP280;9930;49.240;8.548;2022-07-06T11:06:37;101265.13;;;28.42
19568;BMP280;9930;49.240;8.548;2022-07-06T11:09:08;101271.13;;;28.47
19568;BMP280;9930;49.240;8.548;2022-07-06T11:19:23;101262.50;;;28.42
19568;BMP280;9930;49.240;8.548;2022-07-06T11:22:09;101264.31;;;28.38
19568;BMP280;9930;49.240;8.548;2022-07-06T11:24:40;101263.47;;;28.38
19568;BMP280;9930;49.240;8.548;2022-07-06T11:27:09;101255.53;;;28.41
19568;BMP280;9930;49.240;8.548;2022-07-06T11:29:35;101254.41;;;28.51
19568;BMP280;9930;49.240;8.548;2022-07-06T11:32:06;101248.78;;;28.66
19568;BMP280;9930;49.240;8.548;2022-07-06T11:34:38;101242.38;;;28.78
19568;BMP280;9930;49.240;8.548;2022-07-06T11:37:13;101257.97;;;28.86
19568;BMP280;9930;49.240;8.548;2022-07-06T11:39:42;101244.94;;;28.83
19568;BMP280;9930;49.240;8.548;2022-07-06T11:42:10;101242.31;;;28.81
19568;BMP280;9930;49.240;8.548;2022-07-06T11:44:38;101241.44;;;28.81
19568;BMP280;9930;49.240;8.548;2022-07-06T11:47:08;101248.38;;;28.85
19568;BMP280;9930;49.240;8.548;2022-07-06T11:49:36;101240.50;;;28.85
19568;BMP280;9930;49.240;8.548;2022-07-06T11:52:07;101227.50;;;28.79
19568;BMP280;9930;49.240;8.548;2022-07-06T11:54:33;101222.16;;;28.83
19568;BMP280;9930;49.240;8.548;2022-07-06T11:57:00;101235.75;;;28.99
19568;BMP280;9930;49.240;8.548;2022-07-06T11:59:34;101224.13;;;29.09
19568;BMP280;9930;49.240;8.548;2022-07-06T12:04:32;101226.75;;;29.09
19568;BMP280;9930;49.240;8.548;2022-07-06T12:07:06;101227.03;;;28.98
19568;BMP280;9930;49.240;8.548;2022-07-06T12:09:41;101216.03;;;28.81
19568;BMP280;9930;49.240;8.548;2022-07-06T12:12:09;101231.84;;;28.80
19568;BMP280;9930;49.240;8.548;2022-07-06T12:14:40;101226.56;;;28.81
19568;BMP280;9930;49.240;8.548;2022-07-06T12:17:09;101206.50;;;28.79
19568;BMP280;9930;49.240;8.548;2022-07-06T12:19:39;101193.31;;;28.80
19568;BMP280;9930;49.240;8.548;2022-07-06T12:22:08;101197.53;;;28.87
19568;BMP280;9930;49.240;8.548;2022-07-06T12:24:36;101201.50;;;29.04
19568;BMP280;9930;49.240;8.548;2022-07-06T12:27:15;101191.59;;;29.13
19568;BMP280;9930;49.240;8.548;2022-07-06T12:29:41;101179.47;;;29.09
19568;BMP280;9930;49.240;8.548;2022-07-06T12:32:21;101183.94;;;29.06
19568;BMP280;9930;49.240;8.548;2022-07-06T12:35:05;101189.47;;;28.95
19568;BMP280;9930;49.240;8.548;2022-07-06T12:37:36;101192.19;;;28.92
19568;BMP280;9930;49.240;8.548;2022-07-06T12:40:14;101190.59;;;28.85
19568;BMP280;9930;49.240;8.548;2022-07-06T12:42:48;101191.50;;;28.82
19568;BMP280;9930;49.240;8.548;2022-07-06T12:45:13;101179.53;;;28.72
19568;BMP280;9930;49.240;8.548;2022-07-06T12:47:39;101188.25;;;28.73
19568;BMP280;9930;49.240;8.548;2022-07-06T12:50:10;101182.09;;;28.74
19568;BMP280;9930;49.240;8.548;2022-07-06T12:52:39;101181.22;;;28.75
19568;BMP280;9930;49.240;8.548;2022-07-06T12:55:07;101161.34;;;28.64
19568;BMP280;9930;49.240;8.548;2022-07-06T12:57:46;101161.94;;;28.76
19568;BMP280;9930;49.240;8.548;2022-07-06T13:00:14;101175.75;;;28.84
19568;BMP280;9930;49.240;8.548;2022-07-06T13:02:43;101174.06;;;28.80
19568;BMP280;9930;49.240;8.548;2022-07-06T13:05:16;101172.38;;;28.77
19568;BMP280;9930;49.240;8.548;2022-07-06T13:07:47;101180.16;;;28.82
19568;BMP280;9930;49.240;8.548;2022-07-06T13:10:15;101179.25;;;28.84
19568;BMP280;9930;49.240;8.548;2022-07-06T13:12:44;101180.81;;;28.91
19568;BMP280;9930;49.240;8.548;2022-07-06T13:15:10;101174.66;;;28.92
19568;BMP280;9930;49.240;8.548;2022-07-06T13:17:38;101163.31;;;28.90
19568;BMP280;9930;49.240;8.548;2022-07-06T13:20:10;101176.19;;;29.01
19568;BMP280;9930;49.240;8.548;2022-07-06T13:22:37;101167.38;;;29.02
19568;BMP280;9930;49.240;8.548;2022-07-06T13:25:03;101160.38;;;29.02
19568;BMP280;9930;49.240;8.548;2022-07-06T13:27:30;101158.69;;;29.00
19568;BMP280;9930;49.240;8.548;2022-07-06T13:29:59;101164.84;;;28.99
19568;BMP280;9930;49.240;8.548;2022-07-06T13:32:31;101155.41;;;28.92
19568;BMP280;9930;49.240;8.548;2022-07-06T13:34:58;101145.03;;;28.87
19568;BMP280;9930;49.240;8.548;2022-07-06T13:37:26;101156.16;;;28.97
19568;BMP280;9930;49.240;8.548;2022-07-06T13:39:59;101157.94;;;28.95
19568;BMP280;9930;49.240;8.548;2022-07-06T13:42:29;101153.59;;;28.94
19568;BMP280;9930;49.240;8.548;2022-07-06T13:44:59;101126.78;;;28.81
19568;BMP280;9930;49.240;8.548;2022-07-06T13:47:32;101139.78;;;28.87
19568;BMP280;9930;49.240;8.548;2022-07-06T13:50:02;101134.59;;;28.84
19568;BMP280;9930;49.240;8.548;2022-07-06T13:52:31;101140.72;;;28.85
19568;BMP280;9930;49.240;8.548;2022-07-06T13:55:00;101147.69;;;28.86
19568;BMP280;9930;49.240;8.548;2022-07-06T13:57:29;101139.91;;;28.81
19568;BMP280;9930;49.240;8.548;2022-07-06T13:59:58;101134.69;;;28.80
19568;BMP280;9930;49.240;8.548;2022-07-06T14:02:29;101126.81;;;28.80
19568;BMP280;9930;49.240;8.548;2022-07-06T14:04:59;101124.88;;;28.88
19568;BMP280;9930;49.240;8.548;2022-07-06T14:07:28;101133.28;;;29.00
19568;BMP280;9930;49.240;8.548;2022-07-06T14:10:01;101134.06;;;29.04
19568;BMP280;9930;49.240;8.548;2022-07-06T14:12:29;101121.81;;;29.03
19568;BMP280;9930;49.240;8.548;2022-07-06T14:14:56;101116.66;;;29.00
19568;BMP280;9930;49.240;8.548;2022-07-06T14:17:28;101127.94;;;29.04
19568;BMP280;9930;49.240;8.548;2022-07-06T14:19:58;101117.44;;;29.04
19568;BMP280;9930;49.240;8.548;2022-07-06T14:22:28;101122.69;;;29.04
19568;BMP280;9930;49.240;8.548;2022-07-06T14:24:54;101113.03;;;29.04
19568;BMP280;9930;49.240;8.548;2022-07-06T14:27:19;101121.56;;;29.12
19568;BMP280;9930;49.240;8.548;2022-07-06T14:29:48;101116.41;;;29.09
19568;BMP280;9930;49.240;8.548;2022-07-06T14:32:14;101123.13;;;29.19
19568;BMP280;9930;49.240;8.548;2022-07-06T14:34:42;101107.41;;;29.18